sensor_id;sensor_type;location;lat;lon;timestamp;P1;durP1;ratioP1;P2;durP2;ratioP2
6533;SDS011;3300;42.698;23.332;2023-08-12T00:00:54;1069.20;;;956.00;;
6533;SDS011;3300;42.698;23.332;2023-08-12T00:03:21;1074.70;;;961.30;;
6533;SDS011;3300;42.698;23.332;2023-08-12T00:05:47;1061.10;;;950.30;;
6533;SDS011;3300;42.698;23.332;2023-08-12T00:08:14;1067.03;;;954.87;;
6533;SDS011;3300;42.698;23.332;2023-08-12T00:10:41;1070.20;;;957.10;;
6533;SDS011;3300;42.698;23.332;2023-08-12T00:13:08;1067.97;;;954.67;;
6533;SDS011;3300;42.698;23.332;2023-08-12T00:15:36;1089.93;;;976.23;;
6533;SDS011;3300;42.698;23.332;2023-08-12T00:18:03;1081.43;;;974.10;;
6533;SDS011;3300;42.698;23.332;2023-08-12T00:20:31;1083.57;;;974.57;;
6533;SDS011;3300;42.698;23.332;2023-08-12T00:22:58;639.87;;;579.97;;
6533;SDS011;3300;42.698;23.332;2023-08-12T00:25:25;7.47;;;6.07;;
6533;SDS011;3300;42.698;23.332;2023-08-12T00:27:51;181.50;;;163.93;;
6533;SDS011;3300;42.698;23.332;2023-08-12T00:30:18;560.77;;;510.47;;
6533;SDS011;3300;42.698;23.332;2023-08-12T00:32:46;217.33;;;198.97;;
6533;SDS011;3300;42.698;23.332;2023-08-12T00:35:13;231.87;;;212.47;;
6533;SDS011;3300;42.698;23.332;2023-08-12T00:37:40;87.53;;;80.87;;
6533;SDS011;3300;42.698;23.332;2023-08-12T00:40:07;37.23;;;34.67;;
6533;SDS011;3300;42.698;23.332;2023-08-12T00:42:34;98.03;;;90.80;;
6533;SDS011;3300;42.698;23.332;2023-08-12T00:45:01;102.17;;;94.83;;
6533;SDS011;3300;42.698;23.332;2023-08-12T00:47:29;288.93;;;262.60;;
6533;SDS011;3300;42.698;23.332;2023-08-12T00:49:58;413.53;;;375.67;;
6533;SDS011;3300;42.698;23.332;2023-08-12T00:52:25;223.03;;;204.00;;
6533;SDS011;3300;42.698;23.332;2023-08-12T00:54:52;241.60;;;220.23;;
6533;SDS011;3300;42.698;23.332;2023-08-12T00:57:19;429.90;;;389.33;;
6533;SDS011;3300;42.698;23.332;2023-08-12T00:59:46;180.37;;;165.07;;
6533;SDS011;3300;42.698;23.332;2023-08-12T01:02:15;9.03;;;8.13;;
6533;SDS011;3300;42.698;23.332;2023-08-12T01:04:42;66.63;;;60.13;;
6533;SDS011;3300;42.698;23.332;2023-08-12T01:07:10;26.20;;;24.13;;
6533;SDS011;3300;42.698;23.332;2023-08-12T01:09:37;71.73;;;66.83;;
6533;SDS011;3300;42.698;23.332;2023-08-12T01:12:04;27.17;;;25.20;;
6533;SDS011;3300;42.698;23.332;2023-08-12T01:14:38;206.80;;;190.13;;
6533;SDS011;3300;42.698;23.332;2023-08-12T01:17:11;243.80;;;223.53;;
6533;SDS011;3300;42.698;23.332;2023-08-12T01:19:40;297.77;;;271.90;;
6533;SDS011;3300;42.698;23.332;2023-08-12T01:22:08;320.07;;;291.47;;
6533;SDS011;3300;42.698;23.332;2023-08-12T01:24:38;214.23;;;193.30;;
6533;SDS011;3300;42.698;23.332;2023-08-12T01:27:06;444.90;;;400.63;;
6533;SDS011;3300;42.698;23.332;2023-08-12T01:29:34;7.40;;;6.60;;
6533;SDS011;3300;42.698;23.332;2023-08-12T01:32:06;7.07;;;6.37;;
6533;SDS011;3300;42.698;23.332;2023-08-12T01:34:39;6.93;;;6.20;;
6533;SDS011;3300;42.698;23.332;2023-08-12T01:37:11;7.27;;;6.50;;
6533;SDS011;3300;42.698;23.332;2023-08-12T01:39:41;6.93;;;6.23;;
6533;SDS011;3300;42.698;23.332;2023-08-12T01:42:11;104.67;;;95.27;;
6533;SDS011;3300;42.698;23.332;2023-08-12T01:44:38;857.40;;;781.93;;
6533;SDS011;3300;42.698;23.332;2023-08-12T01:47:05;1075.50;;;985.33;;
6533;SDS011;3300;42.698;23.332;2023-08-12T01:49:32;1085.20;;;987.37;;
6533;SDS011;3300;42.698;23.332;2023-08-12T01:51:59;1092.57;;;978.20;;
6533;SDS011;3300;42.698;23.332;2023-08-12T01:54:26;992.17;;;890.83;;
6533;SDS011;3300;42.698;23.332;2023-08-12T01:56:59;962.53;;;865.37;;
6533;SDS011;3300;42.698;23.332;2023-08-12T01:59:26;1019.70;;;917.10;;
6533;SDS011;3300;42.698;23.332;2023-08-12T02:01:53;934.83;;;838.40;;
6533;SDS011;3300;42.698;23.332;2023-08-12T02:04:20;998.00;;;892.23;;
6533;SDS011;3300;42.698;23.332;2023-08-12T02:06:46;1151.37;;;999.90;;
6533;SDS011;3300;42.698;23.332;2023-08-12T02:09:14;1003.23;;;901.33;;
6533;SDS011;3300;42.698;23.332;2023-08-12T02:11:41;1170.27;;;999.90;;
6533;SDS011;3300;42.698;23.332;2023-08-12T02:14:09;1071.97;;;960.80;;
6533;SDS011;3300;42.698;23.332;2023-08-12T02:16:36;1029.90;;;921.40;;
6533;SDS011;3300;42.698;23.332;2023-08-12T02:19:02;831.60;;;745.00;;
6533;SDS011;3300;42.698;23.332;2023-08-12T02:28:49;1124.75;;;999.90;;
6533;SDS011;3300;42.698;23.332;2023-08-12T10:04:17;1098.80;;;988.95;;
6533;SDS011;3300;42.698;23.332;2023-08-12T10:43:48;1197.43;;;999.90;;
6533;SDS011;3300;42.698;23.332;2023-08-12T10:46:22;1194.75;;;999.90;;
6533;SDS011;3300;42.698;23.332;2023-08-12T10:54:09;1174.85;;;999.90;;
6533;SDS011;3300;42.698;23.332;2023-08-12T10:59:51;1178.20;;;999.90;;
6533;SDS011;3300;42.698;23.332;2023-08-12T11:02:22;1176.50;;;999.90;;
6533;SDS011;3300;42.698;23.332;2023-08-12T11:04:53;1173.83;;;999.90;;
6533;SDS011;3300;42.698;23.332;2023-08-12T11:07:20;1175.18;;;999.90;;
6533;SDS011;3300;42.698;23.332;2023-08-12T11:09:51;1171.00;;;999.90;;
6533;SDS011;3300;42.698;23.332;2023-08-12T11:12:27;1170.05;;;999.90;;
6533;SDS011;3300;42.698;23.332;2023-08-12T11:14:56;1176.30;;;999.90;;
6533;SDS011;3300;42.698;23.332;2023-08-12T11:27:15;1167.30;;;999.90;;
6533;SDS011;3300;42.698;23.332;2023-08-12T11:37:05;1168.70;;;999.90;;
6533;SDS011;3300;42.698;23.332;2023-08-12T11:49:18;1164.00;;;999.90;;
6533;SDS011;3300;42.698;23.332;2023-08-12T12:11:23;1168.00;;;999.90;;
6533;SDS011;3300;42.698;23.332;2023-08-12T12:26:04;1160.90;;;999.90;;
6533;SDS011;3300;42.698;23.332;2023-08-12T15:09:55;1161.90;;;999.90;;
6533;SDS011;3300;42.698;23.332;2023-08-12T15:12:23;1177.03;;;999.90;;
6533;SDS011;3300;42.698;23.332;2023-08-12T15:14:50;1185.38;;;999.90;;
6533;SDS011;3300;42.698;23.332;2023-08-12T15:17:18;1188.25;;;999.90;;
6533;SDS011;3300;42.698;23.332;2023-08-12T15:19:44;1198.82;;;999.90;;
6533;SDS011;3300;42.698;23.332;2023-08-12T15:22:11;1203.90;;;999.90;;
6533;SDS011;3300;42.698;23.332;2023-08-12T15:24:38;1202.63;;;999.90;;
6533;SDS011;3300;42.698;23.332;2023-08-12T15:27:05;1205.25;;;999.90;;
6533;SDS011;3300;42.698;23.332;2023-08-12T15:29:31;1211.63;;;999.90;;
6533;SDS011;3300;42.698;23.332;2023-08-12T15:31:58;1212.07;;;999.90;;
6533;SDS011;3300;42.698;23.332;2023-08-12T15:34:26;1210.63;;;999.90;;
6533;SDS011;3300;42.698;23.332;2023-08-12T15:36:53;1204.78;;;999.90;;
6533;SDS011;3300;42.698;23.332;2023-08-12T15:39:20;1214.80;;;999.90;;
6533;SDS011;3300;42.698;23.332;2023-08-12T15:41:47;1203.05;;;999.90;;
6533;SDS011;3300;42.698;23.332;2023-08-12T15:44:14;1215.70;;;999.90;;
6533;SDS011;3300;42.698;23.332;2023-08-12T15:46:41;1209.50;;;999.90;;
6533;SDS011;3300;42.698;23.332;2023-08-12T15:49:08;1206.68;;;999.90;;
6533;SDS011;3300;42.698;23.332;2023-08-12T15:51:37;1218.80;;;999.90;;
6533;SDS011;3300;42.698;23.332;2023-08-12T15:54:04;1220.05;;;999.90;;
6533;SDS011;3300;42.698;23.332;2023-08-12T15:56:31;1223.78;;;999.90;;
6533;SDS011;3300;42.698;23.332;2023-08-12T15:59:01;1217.00;;;999.90;;
6533;SDS011;3300;42.698;23.332;2023-08-12T16:01:28;1221.55;;;999.90;;
6533;SDS011;3300;42.698;23.332;2023-08-12T16:03:56;1214.20;;;999.90;;
6533;SDS011;3300;42.698;23.332;2023-08-12T16:06:22;1225.53;;;999.90;;
6533;SDS011;3300;42.698;23.332;2023-08-12T16:08:50;1231.40;;;999.90;;
6533;SDS011;3300;42.698;23.332;2023-08-12T16:11:17;1221.45;;;999.90;;
6533;SDS011;3300;42.698;23.332;2023-08-12T16:13:44;1218.05;;;999.90;;
6533;SDS011;3300;42.698;23.332;2023-08-12T16:16:11;1225.85;;;999.90;;
6533;SDS011;3300;42.698;23.332;2023-08-12T16:18:37;1223.03;;;999.90;;
6533;SDS011;3300;42.698;23.332;2023-08-12T16:21:04;1218.30;;;999.90;;
6533;SDS011;3300;42.698;23.332;2023-08-12T16:23:31;1223.60;;;999.90;;
6533;SDS011;3300;42.698;23.332;2023-08-12T16:25:59;1220.55;;;999.90;;
6533;SDS011;3300;42.698;23.332;2023-08-12T16:28:26;1231.15;;;999.90;;
6533;SDS011;3300;42.698;23.332;2023-08-12T16:30:53;1222.23;;;999.90;;
6533;SDS011;3300;42.698;23.332;2023-08-12T16:33:19;1221.03;;;999.90;;
6533;SDS011;3300;42.698;23.332;2023-08-12T16:35:46;1222.63;;;999.90;;
6533;SDS011;3300;42.698;23.332;2023-08-12T16:38:14;1228.55;;;999.90;;
6533;SDS011;3300;42.698;23.332;2023-08-12T16:40:41;1222.63;;;999.90;;
6533;SDS011;3300;42.698;23.332;2023-08-12T16:43:09;1225.25;;;999.90;;
6533;SDS011;3300;42.698;23.332;2023-08-12T16:45:36;1222.60;;;999.90;;
